Terminal Aerodrome Forecast
Issued by NWS

Home | Current Version | Previous Version | Text Only | Print | Product List | Glossary On
Versions: 1 2 3 4 5 6 7 8 9 10 11 12 13 14 15 16 17 18 19 20 21 22 23 24 25 26 27
000
FTUS41 KBUF 300845 AAA
TAFJHW
TAF AMD
KJHW 300845Z 3009/3106 18010KT P6SM SCT100
     FM301400 22010G16KT P6SM VCSH BKN060
     FM301800 22012KT 6SM -SHRA VCTS OVC035CB
     FM310500 33008KT 5SM -SHRA BR OVC015
      AMD LTD TO CLD VIS AND WIND=

USA.gov is the U.S. government's official web portal to all federal, state and local government web resources and services.